Time;durP1;ratioP1;P1;durP2;ratioP2;P2;SDS_P1;SDS_P2;PMS_P1;PMS_P2;Temp;Humidity;BMP_temperature;BMP_pressure;BME280_temperature;BME280_humidity;BME280_pressure;Samples;Min_cycle;Max_cycle;Signal;HPM_P1;HPM_P2
2021/06/28 00:01:00;;;;;;;12.57;7.03;;;18.80;99.90;;;;;;4993556;28;20572;-75
2021/06/28 00:03:28;;;;;;;12.10;7.87;;;18.70;99.90;;;;;;4991076;28;20292;-75
2021/06/28 00:05:55;;;;;;;8.90;7.13;;;18.70;99.90;;;;;;4992807;28;20220;-75
2021/06/28 00:08:22;;;;;;;11.50;7.57;;;18.70;99.90;;;;;;4993919;28;20295;-76
2021/06/28 00:10:49;;;;;;;10.33;7.43;;;18.60;99.90;;;;;;4994261;28;20214;-76
2021/06/28 00:13:16;;;;;;;11.37;7.87;;;18.60;99.90;;;;;;4994090;28;20208;-75
2021/06/28 00:15:42;;;;;;;12.27;7.87;;;18.60;99.90;;;;;;4995656;28;20315;-75
2021/06/28 00:18:11;;;;;;;10.80;7.90;;;18.50;99.90;;;;;;4994620;28;20218;-75
2021/06/28 00:20:40;;;;;;;12.97;8.20;;;18.50;99.90;;;;;;4993013;28;20215;-75
2021/06/28 00:23:07;;;;;;;17.83;8.00;;;18.40;99.90;;;;;;4992188;28;20208;-76
2021/06/28 00:25:34;;;;;;;12.10;8.00;;;18.30;99.90;;;;;;4993079;28;20216;-75
2021/06/28 00:28:01;;;;;;;9.63;7.97;;;18.20;99.90;;;;;;4990038;28;20212;-76
2021/06/28 00:30:36;;;;;;;10.47;7.80;;;18.20;99.90;;;;;;4986455;28;20236;-76
2021/06/28 00:33:03;;;;;;;11.70;8.70;;;18.10;99.90;;;;;;4989396;28;20204;-76
2021/06/28 00:35:30;;;;;;;13.73;8.13;;;18.00;99.90;;;;;;4990831;28;20316;-76
2021/06/28 00:37:58;;;;;;;13.13;8.17;;;17.90;99.90;;;;;;4995658;28;20722;-74
2021/06/28 00:40:25;;;;;;;12.57;8.13;;;17.80;99.90;;;;;;4991225;28;20591;-75
2021/06/28 00:42:52;;;;;;;14.40;8.37;;;17.70;99.90;;;;;;4988955;28;20531;-76
2021/06/28 00:45:21;;;;;;;12.60;8.70;;;17.70;99.90;;;;;;4992410;28;20724;-75
2021/06/28 00:47:49;;;;;;;10.57;8.33;;;17.60;99.90;;;;;;4989022;28;20201;-75
2021/06/28 00:50:17;;;;;;;11.03;8.43;;;17.40;99.90;;;;;;4989164;28;20200;-76
2021/06/28 00:52:47;;;;;;;16.30;9.17;;;17.40;99.90;;;;;;4992128;28;20220;-73
2021/06/28 00:55:15;;;;;;;13.70;8.97;;;17.30;99.90;;;;;;4989170;28;20228;-75
2021/06/28 00:57:42;;;;;;;14.23;8.67;;;17.20;99.90;;;;;;4988986;28;20216;-75
2021/06/28 01:00:11;;;;;;;14.10;9.37;;;17.10;99.90;;;;;;4992822;28;20759;-75
2021/06/28 01:02:38;;;;;;;12.77;8.90;;;17.00;99.90;;;;;;4990372;28;20551;-75
2021/06/28 01:05:08;;;;;;;13.80;8.43;;;17.00;99.90;;;;;;4991854;28;20224;-76
2021/06/28 01:07:34;;;;;;;11.47;8.80;;;16.90;99.90;;;;;;4991902;28;20782;-76
2021/06/28 01:10:02;;;;;;;12.27;8.93;;;16.90;99.90;;;;;;4991970;28;20200;-76
2021/06/28 01:12:30;;;;;;;14.33;8.60;;;16.80;99.90;;;;;;4997602;28;20286;-75
2021/06/28 01:14:58;;;;;;;13.23;9.03;;;16.70;99.90;;;;;;4995973;28;20229;-77
2021/06/28 01:17:25;;;;;;;13.77;8.97;;;16.60;99.90;;;;;;4994624;28;20233;-75
2021/06/28 01:19:58;;;;;;;13.17;9.40;;;16.60;99.90;;;;;;5003089;28;20212;-75
2021/06/28 01:22:26;;;;;;;13.70;9.57;;;16.50;99.90;;;;;;4991600;28;20209;-75
2021/06/28 01:24:56;;;;;;;17.80;10.07;;;16.50;99.90;;;;;;4992650;28;20323;-76
2021/06/28 01:27:24;;;;;;;17.93;9.70;;;16.40;99.90;;;;;;4995160;28;20205;-76
2021/06/28 01:29:51;;;;;;;13.40;9.23;;;16.40;99.90;;;;;;4992740;28;20205;-75
2021/06/28 01:32:18;;;;;;;14.20;9.50;;;16.40;99.90;;;;;;4991633;28;20675;-75
2021/06/28 01:34:45;;;;;;;13.80;9.60;;;16.40;99.90;;;;;;4991777;28;20306;-75
2021/06/28 01:37:19;;;;;;;13.97;9.90;;;16.40;99.90;;;;;;4991324;28;20343;-76
2021/06/28 01:39:47;;;;;;;17.60;10.37;;;16.30;99.90;;;;;;4989485;28;20290;-75
2021/06/28 01:42:15;;;;;;;17.87;9.47;;;16.30;99.90;;;;;;4989352;28;20208;-75
2021/06/28 01:44:42;;;;;;;18.60;10.60;;;16.20;99.90;;;;;;4989009;28;20231;-76
2021/06/28 01:47:09;;;;;;;17.83;10.60;;;16.20;99.90;;;;;;4993499;28;20580;-75
2021/06/28 01:49:35;;;;;;;14.43;9.83;;;16.30;99.90;;;;;;4989543;28;20204;-75
2021/06/28 01:52:03;;;;;;;18.77;10.43;;;16.30;99.90;;;;;;4989416;28;20219;-75
2021/06/28 01:54:30;;;;;;;13.87;9.20;;;16.20;99.90;;;;;;4991815;28;20232;-75
2021/06/28 01:56:57;;;;;;;15.37;10.47;;;16.20;99.90;;;;;;4992639;28;20244;-75
2021/06/28 01:59:28;;;;;;;16.87;10.53;;;16.20;99.90;;;;;;4991872;28;20217;-75
2021/06/28 02:01:55;;;;;;;14.00;10.23;;;16.10;99.90;;;;;;4991148;28;20671;-75
2021/06/28 02:04:22;;;;;;;17.60;10.03;;;16.00;99.90;;;;;;4995968;28;20267;-76
2021/06/28 02:06:49;;;;;;;21.67;10.30;;;16.00;99.90;;;;;;4997942;28;20200;-75
2021/06/28 02:09:16;;;;;;;16.83;10.20;;;16.00;99.90;;;;;;4992213;28;20655;-75
2021/06/28 02:11:43;;;;;;;15.03;9.43;;;15.90;99.90;;;;;;4991406;28;20202;-75
2021/06/28 02:14:10;;;;;;;15.33;10.37;;;15.80;99.90;;;;;;4989556;28;20611;-75
2021/06/28 02:16:38;;;;;;;18.40;10.37;;;15.80;99.90;;;;;;4991981;28;20664;-75
2021/06/28 02:19:05;;;;;;;16.30;10.03;;;15.70;99.90;;;;;;4990135;28;20204;-75
2021/06/28 02:21:32;;;;;;;15.17;9.63;;;15.70;99.90;;;;;;4991124;28;20212;-75
2021/06/28 02:23:59;;;;;;;17.37;10.57;;;15.60;99.90;;;;;;4990579;28;20300;-75
2021/06/28 02:26:26;;;;;;;19.00;10.73;;;15.60;99.90;;;;;;4989959;28;20222;-75
2021/06/28 02:28:53;;;;;;;16.27;10.83;;;15.60;99.90;;;;;;4991743;28;20300;-75
2021/06/28 02:31:22;;;;;;;21.30;11.13;;;15.60;99.90;;;;;;4989520;28;20251;-76
2021/06/28 02:33:52;;;;;;;23.27;11.43;;;15.60;99.90;;;;;;4988669;28;20693;-76
2021/06/28 02:36:20;;;;;;;16.90;11.23;;;15.60;99.90;;;;;;4988137;28;20412;-75
2021/06/28 02:38:47;;;;;;;16.83;11.43;;;15.60;99.90;;;;;;4989381;28;20224;-75
2021/06/28 02:41:16;;;;;;;15.57;11.43;;;15.60;99.90;;;;;;4989648;28;20204;-74
2021/06/28 02:43:43;;;;;;;19.63;11.47;;;15.60;99.90;;;;;;4994920;28;20266;-75
2021/06/28 02:46:12;;;;;;;17.20;10.93;;;15.50;99.90;;;;;;4993481;28;20339;-75
2021/06/28 02:48:39;;;;;;;14.27;10.73;;;15.40;99.90;;;;;;4992383;28;20219;-75
2021/06/28 02:51:09;;;;;;;15.53;10.90;;;15.40;99.90;;;;;;4995043;28;20209;-75
2021/06/28 02:53:36;;;;;;;16.20;11.17;;;15.40;99.90;;;;;;4994235;28;20233;-75
2021/06/28 02:56:13;;;;;;;17.57;10.87;;;15.40;99.90;;;;;;4994476;28;20257;-75
2021/06/28 02:58:40;;;;;;;17.40;11.57;;;15.40;99.90;;;;;;4993710;28;20311;-75
2021/06/28 03:01:08;;;;;;;18.33;11.73;;;15.50;99.90;;;;;;4997071;28;20200;-75
2021/06/28 03:03:35;;;;;;;15.77;11.30;;;15.50;99.90;;;;;;4998019;28;20258;-74
2021/06/28 03:06:02;;;;;;;18.57;11.30;;;15.50;99.90;;;;;;4997197;28;20370;-75
2021/06/28 03:08:30;;;;;;;15.30;10.37;;;15.50;99.90;;;;;;4991711;28;20199;-75
2021/06/28 03:10:57;;;;;;;18.67;11.10;;;15.60;99.90;;;;;;4993748;28;20251;-76
2021/06/28 03:13:24;;;;;;;24.00;12.10;;;15.60;99.90;;;;;;4996809;28;20205;-75
2021/06/28 03:15:51;;;;;;;17.77;11.30;;;15.60;99.90;;;;;;4995720;28;20880;-75
2021/06/28 03:18:17;;;;;;;16.30;11.47;;;15.60;99.90;;;;;;4993291;28;20224;-75
2021/06/28 03:20:44;;;;;;;19.40;11.87;;;15.60;99.90;;;;;;4997799;28;20196;-75
2021/06/28 03:23:12;;;;;;;18.60;11.73;;;15.50;99.90;;;;;;4995503;28;20210;-75
2021/06/28 03:25:58;;;;;;;16.50;11.83;;;15.60;99.90;;;;;;5070869;22;20255;-86
2021/06/28 03:28:50;;;;;;;20.73;11.47;;;15.50;99.90;;;;;;5015581;28;20212;-84
2021/06/28 09:24:37;;;;;;;6.67;5.80;;;28.50;99.90;;;;;;5009726;23;20281;-75
2021/06/28 09:27:22;;;;;;;6.50;5.50;;;28.10;99.90;;;;;;5015549;28;20209;-74
2021/06/28 09:29:52;;;;;;;8.43;5.33;;;27.90;99.90;;;;;;5017956;28;20286;-75
2021/06/28 09:32:20;;;;;;;11.37;5.53;;;27.70;99.90;;;;;;5013103;28;20611;-74
2021/06/28 09:34:49;;;;;;;7.53;5.33;;;27.80;99.90;;;;;;5019410;28;20235;-74
2021/06/28 09:37:18;;;;;;;6.50;5.33;;;27.90;99.90;;;;;;5012427;28;20211;-72
2021/06/28 09:39:47;;;;;;;8.47;5.50;;;27.80;99.90;;;;;;5011813;28;20207;-74
2021/06/28 09:42:17;;;;;;;9.57;5.83;;;27.50;99.90;;;;;;5015632;28;20212;-75
2021/06/28 09:44:51;;;;;;;10.50;6.17;;;27.60;99.90;;;;;;5012444;28;20231;-73
2021/06/28 09:47:20;;;;;;;10.00;5.50;;;27.90;99.90;;;;;;5010372;28;20634;-72
2021/06/28 09:50:00;;;;;;;6.37;5.40;;;27.70;99.90;;;;;;5015440;28;20223;-73
2021/06/28 09:52:32;;;;;;;10.83;5.60;;;27.80;99.90;;;;;;5014518;28;20296;-73
2021/06/28 09:55:14;;;;;;;6.60;4.80;;;28.30;99.90;;;;;;5013514;28;20236;-73
2021/06/28 09:58:10;;;;;;;7.90;4.80;;;28.70;99.90;;;;;;5018838;28;20674;-73
2021/06/28 10:00:38;;;;;;;10.17;5.63;;;29.10;99.90;;;;;;5014375;28;20200;-73
2021/06/28 10:03:06;;;;;;;13.20;6.10;;;28.70;99.90;;;;;;5014513;28;20204;-73
2021/06/28 10:05:37;;;;;;;11.57;5.40;;;28.60;99.90;;;;;;5015258;28;20300;-72
2021/06/28 10:08:14;;;;;;;5.87;5.23;;;28.60;99.90;;;;;;5010469;28;20965;-72
2021/06/28 10:10:43;;;;;;;7.57;5.00;;;28.70;99.90;;;;;;5015208;28;20579;-73
2021/06/28 10:13:10;;;;;;;6.23;5.00;;;28.70;99.90;;;;;;5010959;28;20299;-73
2021/06/28 10:15:40;;;;;;;10.33;5.67;;;29.20;99.90;;;;;;5011776;28;20317;-74
2021/06/28 10:18:09;;;;;;;10.57;5.73;;;29.10;99.90;;;;;;5013899;28;20311;-73
2021/06/28 10:20:38;;;;;;;8.70;5.53;;;29.20;99.90;;;;;;5012739;28;20209;-74
2021/06/28 10:23:07;;;;;;;7.77;5.20;;;29.10;99.90;;;;;;5010593;28;20213;-72
2021/06/28 10:25:36;;;;;;;6.33;5.40;;;28.50;99.90;;;;;;5013232;28;20318;-73
2021/06/28 10:28:06;;;;;;;6.20;5.50;;;28.30;99.90;;;;;;5011634;28;20572;-73
2021/06/28 10:30:33;;;;;;;6.30;5.53;;;28.10;99.90;;;;;;5019816;28;20593;-74
2021/06/28 10:33:04;;;;;;;7.47;5.80;;;27.80;99.90;;;;;;5010366;28;20571;-74
2021/06/28 10:35:35;;;;;;;10.43;5.47;;;27.80;99.90;;;;;;5011169;28;20239;-74
2021/06/28 10:38:05;;;;;;;6.77;5.47;;;27.80;99.90;;;;;;5011615;28;20228;-74
2021/06/28 10:40:52;;;;;;;7.70;5.60;;;27.80;99.90;;;;;;5011785;28;20304;-74
2021/06/28 10:43:26;;;;;;;7.87;5.43;;;27.40;99.90;;;;;;5011095;28;20266;-74
2021/06/28 10:45:53;;;;;;;6.47;5.77;;;27.20;99.90;;;;;;5011271;28;20281;-74
2021/06/28 10:48:22;;;;;;;7.43;5.10;;;27.20;99.90;;;;;;5012446;28;20295;-74
2021/06/28 10:50:55;;;;;;;7.27;5.27;;;27.20;99.90;;;;;;5010293;28;20214;-73
2021/06/28 10:54:15;;;;;;;9.87;5.60;;;27.10;99.90;;;;;;5011461;28;20204;-74
2021/06/28 10:57:01;;;;;;;9.00;5.30;;;27.20;99.90;;;;;;5011789;28;20207;-74
2021/06/28 10:59:40;;;;;;;11.33;4.93;;;27.50;99.90;;;;;;5012614;28;20254;-74
2021/06/28 11:02:09;;;;;;;7.37;4.40;;;27.60;99.90;;;;;;5016467;28;20218;-74
2021/06/28 11:04:39;;;;;;;6.33;4.50;;;28.00;99.90;;;;;;5009766;28;20241;-74
2021/06/28 11:07:09;;;;;;;5.00;4.23;;;28.30;99.90;;;;;;5009867;28;20204;-73
2021/06/28 11:09:38;;;;;;;8.83;4.03;;;28.50;99.90;;;;;;5011986;28;20747;-74
2021/06/28 11:12:07;;;;;;;4.30;3.70;;;28.80;99.90;;;;;;5010225;28;20210;-74
2021/06/28 11:14:47;;;;;;;4.20;3.67;;;28.80;99.90;;;;;;5011950;28;20742;-74
2021/06/28 11:17:17;;;;;;;5.27;4.00;;;29.10;99.90;;;;;;5010473;28;20219;-74
2021/06/28 11:19:52;;;;;;;7.07;4.00;;;29.10;99.90;;;;;;5009731;28;20221;-74
2021/06/28 11:22:44;;;;;;;6.97;3.90;;;29.30;99.90;;;;;;5014291;28;20204;-74
2021/06/28 11:25:36;;;;;;;5.57;4.23;;;29.40;99.90;;;;;;5013165;28;20623;-74
2021/06/28 11:28:21;;;;;;;4.73;3.87;;;29.00;99.90;;;;;;5009903;28;20673;-74
2021/06/28 11:30:55;;;;;;;4.60;3.70;;;28.90;99.90;;;;;;5015582;28;20615;-74
2021/06/28 11:33:36;;;;;;;7.47;4.33;;;29.00;99.90;;;;;;5010037;28;20246;-74
2021/06/28 11:36:03;;;;;;;7.47;4.20;;;29.20;99.90;;;;;;5015855;28;20316;-73
2021/06/28 11:38:37;;;;;;;4.80;3.57;;;29.40;99.90;;;;;;5014101;28;20580;-74
2021/06/28 11:41:15;;;;;;;4.87;4.03;;;29.20;99.90;;;;;;5009239;28;20210;-73
2021/06/28 11:43:44;;;;;;;5.67;4.00;;;29.30;99.90;;;;;;5010927;28;20231;-74
2021/06/28 11:46:14;;;;;;;5.77;3.80;;;29.20;99.90;;;;;;5008316;28;20235;-74
2021/06/28 11:48:47;;;;;;;5.17;4.00;;;29.10;99.90;;;;;;5014402;28;20216;-74
2021/06/28 11:51:19;;;;;;;5.33;3.83;;;29.50;99.90;;;;;;5009342;28;20208;-74
2021/06/28 11:53:56;;;;;;;4.90;4.20;;;29.60;99.90;;;;;;5017840;28;20216;-74
2021/06/28 11:56:28;;;;;;;5.57;3.87;;;29.80;99.90;;;;;;5008766;28;20622;-74
2021/06/28 11:58:56;;;;;;;4.50;4.07;;;;;;;;;;5010757;28;20236;-74
2021/06/28 12:01:29;;;;;;;5.80;4.50;;;29.80;99.90;;;;;;5009415;28;20218;-74
2021/06/28 12:03:56;;;;;;;7.87;4.93;;;29.90;99.90;;;;;;5009831;28;20212;-74
2021/06/28 12:06:27;;;;;;;6.77;4.23;;;29.80;99.90;;;;;;5010543;28;20296;-74
2021/06/28 12:09:05;;;;;;;7.20;4.30;;;29.60;99.90;;;;;;5008834;28;20214;-74
2021/06/28 12:11:32;;;;;;;9.03;4.53;;;29.90;99.90;;;;;;5011729;28;20226;-73
2021/06/28 12:13:59;;;;;;;6.27;3.97;;;30.00;99.90;;;;;;5011871;28;20207;-74
2021/06/28 12:16:28;;;;;;;5.40;4.00;;;30.10;99.90;;;;;;5020528;28;20300;-74
2021/06/28 12:19:05;;;;;;;5.53;4.50;;;30.20;99.90;;;;;;5011679;28;20395;-74
2021/06/28 12:21:33;;;;;;;6.70;4.17;;;29.70;99.90;;;;;;5010731;28;20276;-73
2021/06/28 12:24:02;;;;;;;6.37;4.20;;;30.00;99.90;;;;;;5010014;28;20216;-73
2021/06/28 12:26:29;;;;;;;6.17;4.80;;;30.10;99.90;;;;;;5008513;28;20225;-74
2021/06/28 12:28:57;;;;;;;6.97;4.60;;;30.00;99.90;;;;;;5009205;28;20300;-74
2021/06/28 12:31:24;;;;;;;7.50;4.70;;;30.30;99.90;;;;;;5009329;28;20272;-73
2021/06/28 12:33:56;;;;;;;5.57;4.50;;;30.40;99.90;;;;;;5010233;28;20244;-73
2021/06/28 12:36:23;;;;;;;5.30;4.60;;;29.90;99.90;;;;;;5010485;28;20211;-74
2021/06/28 12:38:59;;;;;;;6.87;4.83;;;30.20;99.90;;;;;;5009116;28;20753;-74
2021/06/28 12:41:26;;;;;;;5.97;4.70;;;30.60;99.90;;;;;;5009835;28;20670;-74
2021/06/28 12:43:53;;;;;;;6.30;4.87;;;30.60;99.90;;;;;;5009649;28;20218;-74
2021/06/28 12:46:20;;;;;;;6.50;4.90;;;30.40;99.90;;;;;;5016794;28;20218;-74
2021/06/28 12:48:48;;;;;;;6.10;4.90;;;30.40;99.90;;;;;;5009485;28;20525;-73
2021/06/28 12:51:21;;;;;;;6.97;5.40;;;30.00;99.90;;;;;;5009014;28;20231;-73
2021/06/28 12:53:48;;;;;;;10.07;5.07;;;30.00;99.90;;;;;;5007963;28;20233;-74
2021/06/28 12:56:17;;;;;;;8.23;4.60;;;30.10;99.90;;;;;;5002195;28;20682;-74
2021/06/28 12:58:47;;;;;;;5.60;4.30;;;29.70;99.90;;;;;;5008450;28;20219;-74
2021/06/28 13:01:30;;;;;;;6.43;4.57;;;29.50;99.90;;;;;;5019716;28;20229;-74
2021/06/28 13:04:15;;;;;;;5.70;4.73;;;29.40;99.90;;;;;;5012245;28;20203;-75
2021/06/28 13:06:44;;;;;;;5.97;3.90;;;29.60;99.90;;;;;;5017924;28;20210;-74
2021/06/28 13:09:15;;;;;;;5.03;4.33;;;29.80;99.90;;;;;;5020845;28;20290;-75
2021/06/28 13:11:49;;;;;;;6.57;5.13;;;30.00;99.90;;;;;;5012954;28;20306;-75
2021/06/28 13:14:29;;;;;;;6.03;4.80;;;30.20;99.90;;;;;;5015068;28;20242;-75
2021/06/28 13:17:15;;;;;;;10.00;5.07;;;30.20;99.90;;;;;;5019145;28;20216;-74
2021/06/28 13:19:42;;;;;;;7.67;4.73;;;30.40;99.90;;;;;;5014584;28;20232;-75
2021/06/28 13:22:11;;;;;;;7.77;4.50;;;30.10;99.90;;;;;;5015251;28;20503;-75
2021/06/28 13:24:38;;;;;;;6.53;4.77;;;30.20;99.90;;;;;;5022186;28;20255;-74
2021/06/28 13:27:08;;;;;;;6.10;4.80;;;30.10;99.90;;;;;;5011898;28;20645;-75
2021/06/28 13:29:38;;;;;;;5.50;4.43;;;29.90;99.90;;;;;;5014721;28;20211;-74
2021/06/28 13:32:08;;;;;;;5.00;4.20;;;29.30;99.90;;;;;;5013244;28;20217;-74
2021/06/28 13:34:46;;;;;;;5.13;4.20;;;29.40;99.90;;;;;;5015356;28;20252;-75
2021/06/28 13:37:17;;;;;;;7.27;4.13;;;29.80;99.90;;;;;;5010127;28;20292;-75
2021/06/28 13:39:48;;;;;;;5.33;4.03;;;29.90;99.90;;;;;;5017557;28;20325;-74
2021/06/28 13:42:20;;;;;;;6.80;4.80;;;29.90;99.90;;;;;;5012300;28;20226;-75
2021/06/28 13:45:12;;;;;;;5.80;4.03;;;29.90;99.90;;;;;;5012040;28;20326;-75
2021/06/28 13:47:52;;;;;;;6.73;4.57;;;29.80;99.90;;;;;;4997259;28;20216;-75
2021/06/28 13:50:20;;;;;;;4.87;4.37;;;29.90;99.90;;;;;;5017876;28;20559;-73
2021/06/28 13:52:48;;;;;;;6.90;4.57;;;29.80;99.90;;;;;;5013158;28;20647;-74
2021/06/28 13:55:16;;;;;;;6.27;4.60;;;29.70;99.90;;;;;;5011121;28;20318;-74
2021/06/28 13:57:47;;;;;;;6.70;4.47;;;29.60;99.90;;;;;;5011687;28;20302;-74
2021/06/28 14:00:15;;;;;;;7.67;4.30;;;29.40;99.90;;;;;;5011348;28;20313;-75
2021/06/28 14:02:42;;;;;;;4.50;4.10;;;29.10;99.90;;;;;;5013010;28;20206;-75
2021/06/28 14:05:10;;;;;;;4.53;4.03;;;29.00;99.90;;;;;;5011437;28;20257;-75
2021/06/28 14:07:37;;;;;;;5.70;4.50;;;29.00;99.90;;;;;;5014400;28;20318;-75
2021/06/28 14:10:07;;;;;;;4.23;3.63;;;29.00;99.90;;;;;;5014050;28;20292;-71
2021/06/28 14:12:34;;;;;;;5.30;4.00;;;29.00;99.90;;;;;;5011546;28;20279;-72
2021/06/28 14:15:01;;;;;;;6.83;4.53;;;29.10;99.90;;;;;;5010759;28;20226;-73
2021/06/28 14:17:28;;;;;;;6.13;4.40;;;29.10;99.90;;;;;;5012087;28;20226;-72
2021/06/28 14:19:54;;;;;;;9.27;3.90;;;29.00;99.90;;;;;;5010398;28;20231;-73
2021/06/28 14:22:21;;;;;;;5.10;3.77;;;28.90;99.90;;;;;;5006177;28;20229;-72
2021/06/28 14:24:48;;;;;;;7.67;4.40;;;28.70;99.90;;;;;;5007701;28;20230;-72
2021/06/28 14:27:16;;;;;;;7.40;4.37;;;28.50;99.90;;;;;;5007498;28;20300;-73
2021/06/28 14:29:43;;;;;;;5.83;4.30;;;28.30;99.90;;;;;;5012436;28;20288;-72
2021/06/28 14:32:10;;;;;;;7.57;4.53;;;28.10;99.90;;;;;;5006615;28;20201;-71
2021/06/28 14:34:37;;;;;;;8.07;4.20;;;27.90;99.90;;;;;;5008312;28;20256;-71
2021/06/28 14:37:04;;;;;;;5.83;4.13;;;28.00;99.90;;;;;;5009416;28;20506;-71
2021/06/28 14:39:32;;;;;;;5.77;4.30;;;27.90;99.90;;;;;;5003412;28;20227;-72
2021/06/28 14:41:58;;;;;;;11.17;3.77;;;27.80;99.90;;;;;;5002092;28;20646;-72
2021/06/28 14:44:27;;;;;;;6.63;3.43;;;27.60;99.90;;;;;;5005810;28;20233;-72
2021/06/28 14:46:54;;;;;;;3.77;3.10;;;27.30;99.90;;;;;;5007925;28;20212;-73
2021/06/28 14:49:21;;;;;;;10.47;3.67;;;26.50;99.90;;;;;;5010850;28;20200;-73
2021/06/28 14:51:48;;;;;;;7.70;3.37;;;25.80;99.90;;;;;;5013540;28;20306;-73
2021/06/28 14:54:16;;;;;;;9.47;3.87;;;25.30;99.90;;;;;;5015112;28;20220;-73
2021/06/28 14:56:42;;;;;;;5.90;3.33;;;24.90;99.90;;;;;;5009411;28;20199;-73
2021/06/28 14:59:09;;;;;;;9.47;4.30;;;24.30;99.90;;;;;;5008407;28;20256;-73
2021/06/28 15:01:38;;;;;;;7.27;3.43;;;24.00;99.90;;;;;;5009440;28;20769;-72
2021/06/28 15:04:05;;;;;;;5.07;3.10;;;23.80;99.90;;;;;;5011927;28;20244;-73
2021/06/28 15:06:32;;;;;;;10.70;3.83;;;23.60;99.90;;;;;;5011333;28;20297;-71
2021/06/28 15:08:59;;;;;;;5.20;3.40;;;23.40;99.90;;;;;;5016378;28;20300;-70
2021/06/28 15:11:26;;;;;;;6.27;3.00;;;23.10;99.90;;;;;;5010950;28;20315;-70
2021/06/28 15:13:53;;;;;;;9.23;4.00;;;22.80;99.90;;;;;;5013395;28;20205;-72
2021/06/28 15:16:20;;;;;;;8.33;3.57;;;22.60;99.90;;;;;;5011945;28;20637;-71
2021/06/28 15:18:49;;;;;;;7.87;3.87;;;22.60;99.90;;;;;;5011207;28;20288;-71
2021/06/28 15:21:15;;;;;;;8.03;3.73;;;22.50;99.90;;;;;;5007272;28;20677;-71
2021/06/28 15:23:42;;;;;;;9.20;3.87;;;22.20;99.90;;;;;;5011013;28;20210;-73
2021/06/28 15:26:09;;;;;;;5.80;4.10;;;22.20;99.90;;;;;;5006395;28;20244;-73
2021/06/28 15:28:36;;;;;;;13.73;3.93;;;22.00;99.90;;;;;;5011976;28;20286;-72
2021/06/28 15:31:03;;;;;;;11.70;4.30;;;21.80;99.90;;;;;;5012105;28;20200;-72
2021/06/28 15:33:30;;;;;;;6.97;4.30;;;21.40;99.90;;;;;;5014675;28;20200;-72
2021/06/28 15:35:58;;;;;;;10.63;4.47;;;21.50;99.90;;;;;;5012278;28;20235;-72
2021/06/28 15:38:27;;;;;;;9.37;4.63;;;21.50;99.90;;;;;;5007394;28;20205;-72
2021/06/28 15:40:54;;;;;;;7.97;4.10;;;21.50;99.90;;;;;;5007201;28;20973;-71
2021/06/28 15:43:23;;;;;;;9.87;4.50;;;21.50;99.90;;;;;;5005553;28;20195;-72
2021/06/28 15:45:50;;;;;;;11.00;4.30;;;21.40;99.90;;;;;;5004628;28;20621;-72
2021/06/28 15:48:17;;;;;;;11.63;4.30;;;21.20;99.90;;;;;;5009124;28;20866;-72
2021/06/28 15:50:44;;;;;;;11.53;5.07;;;21.20;99.90;;;;;;5010614;28;20200;-73
2021/06/28 15:53:13;;;;;;;8.60;4.77;;;21.00;99.90;;;;;;5009771;28;20299;-74
2021/06/28 15:55:41;;;;;;;9.80;5.07;;;21.10;99.90;;;;;;5007385;28;20234;-74
2021/06/28 15:58:09;;;;;;;7.13;4.30;;;20.90;99.90;;;;;;5001697;28;20303;-73
2021/06/28 16:00:36;;;;;;;9.57;4.30;;;20.90;99.90;;;;;;5005665;28;20219;-73
2021/06/28 16:03:05;;;;;;;6.97;4.10;;;20.80;99.90;;;;;;5012968;28;20218;-73
2021/06/28 16:05:33;;;;;;;8.17;4.03;;;20.80;99.90;;;;;;5008304;28;20262;-73
2021/06/28 16:08:01;;;;;;;10.47;4.33;;;20.80;99.90;;;;;;5012512;28;20243;-73
2021/06/28 16:10:29;;;;;;;9.77;4.30;;;20.90;99.90;;;;;;5009361;28;20235;-74
2021/06/28 16:12:56;;;;;;;8.83;4.53;;;20.90;99.90;;;;;;5020420;28;20225;-73
2021/06/28 16:15:23;;;;;;;11.20;4.60;;;20.90;99.90;;;;;;5012366;28;20325;-74
2021/06/28 16:17:50;;;;;;;9.60;5.37;;;20.80;99.90;;;;;;5011695;28;20673;-73
2021/06/28 16:20:18;;;;;;;9.83;5.37;;;20.90;99.90;;;;;;5009145;28;20259;-73
2021/06/28 16:22:46;;;;;;;8.23;4.20;;;21.00;99.90;;;;;;5012417;28;20227;-74
2021/06/28 16:25:14;;;;;;;9.27;4.10;;;21.10;99.90;;;;;;5008325;28;20236;-74
2021/06/28 16:27:45;;;;;;;10.10;4.30;;;21.20;99.90;;;;;;5009782;28;20230;-73
2021/06/28 16:30:13;;;;;;;6.90;3.80;;;21.30;99.90;;;;;;5009318;28;20291;-74
2021/06/28 16:32:41;;;;;;;7.87;4.40;;;21.20;99.90;;;;;;5015867;28;20204;-74
2021/06/28 16:35:10;;;;;;;7.30;4.00;;;21.30;99.90;;;;;;5019743;28;20595;-74
2021/06/28 16:37:37;;;;;;;5.60;4.10;;;21.40;99.90;;;;;;5024238;28;20230;-74
2021/06/28 16:40:06;;;;;;;6.13;3.87;;;21.50;99.90;;;;;;5013641;28;20227;-74
2021/06/28 16:42:33;;;;;;;5.87;4.07;;;21.50;99.90;;;;;;5014391;28;20204;-74
2021/06/28 16:45:01;;;;;;;12.83;4.00;;;21.60;99.90;;;;;;5024997;28;20224;-74
2021/06/28 16:47:28;;;;;;;11.87;4.40;;;21.70;99.90;;;;;;5014722;28;20196;-74
2021/06/28 16:49:55;;;;;;;8.33;4.27;;;21.70;99.90;;;;;;5021996;28;20296;-73
2021/06/28 16:52:22;;;;;;;8.03;4.23;;;21.80;99.90;;;;;;5018455;28;20216;-74
2021/06/28 16:54:49;;;;;;;10.30;4.90;;;21.70;99.90;;;;;;5012562;28;20745;-73
2021/06/28 16:57:16;;;;;;;9.90;5.30;;;21.60;99.90;;;;;;5013378;28;20291;-73
2021/06/28 16:59:43;;;;;;;12.27;5.70;;;21.50;99.90;;;;;;5016782;28;20211;-74
2021/06/28 17:02:11;;;;;;;14.40;6.33;;;21.40;99.90;;;;;;5014741;28;20307;-74
2021/06/28 17:04:38;;;;;;;9.80;5.27;;;21.30;99.90;;;;;;5012018;28;20232;-74
2021/06/28 17:07:05;;;;;;;13.57;5.07;;;21.20;99.90;;;;;;5012654;28;20227;-74
2021/06/28 17:09:32;;;;;;;13.80;6.00;;;21.20;99.90;;;;;;5012967;28;20207;-74
2021/06/28 17:11:59;;;;;;;7.07;5.43;;;21.10;99.90;;;;;;5011618;28;20733;-74
2021/06/28 17:14:26;;;;;;;6.83;5.33;;;21.10;99.90;;;;;;5022654;28;20740;-74
2021/06/28 17:16:52;;;;;;;9.90;5.40;;;21.10;99.90;;;;;;5013189;28;20299;-74
2021/06/28 17:19:21;;;;;;;7.93;5.27;;;21.10;99.90;;;;;;5012326;28;20199;-75
2021/06/28 17:21:48;;;;;;;25.60;13.73;;;21.10;99.90;;;;;;5011954;28;20220;-74
2021/06/28 17:24:15;;;;;;;61.37;34.23;;;21.00;99.90;;;;;;5010694;28;21026;-74
2021/06/28 17:26:42;;;;;;;13.97;6.70;;;20.90;99.90;;;;;;5007229;28;20215;-73
2021/06/28 17:29:09;;;;;;;10.97;6.97;;;20.80;99.90;;;;;;5010135;28;20287;-74
2021/06/28 17:31:36;;;;;;;12.53;6.30;;;20.80;99.90;;;;;;5009427;28;20292;-74
2021/06/28 17:34:02;;;;;;;8.93;5.47;;;20.70;99.90;;;;;;5011729;28;20314;-74
2021/06/28 17:36:31;;;;;;;8.37;5.60;;;20.60;99.90;;;;;;5009630;28;20203;-74
2021/06/28 17:38:57;;;;;;;8.20;5.83;;;20.50;99.90;;;;;;5006979;28;20593;-74
2021/06/28 17:41:25;;;;;;;10.37;5.63;;;20.60;99.90;;;;;;5007493;28;20357;-75
2021/06/28 17:43:52;;;;;;;8.67;5.43;;;20.50;99.90;;;;;;5009049;28;20208;-75
2021/06/28 17:46:19;;;;;;;19.43;5.83;;;20.50;99.90;;;;;;5006159;28;20212;-75
2021/06/28 17:48:47;;;;;;;11.03;5.80;;;20.50;99.90;;;;;;5004273;28;20669;-76
2021/06/28 17:51:16;;;;;;;8.87;5.93;;;20.50;99.90;;;;;;5006212;28;20266;-72
2021/06/28 17:53:46;;;;;;;9.47;5.50;;;20.50;99.90;;;;;;5004953;28;20340;-75
2021/06/28 17:56:19;;;;;;;8.87;5.60;;;20.40;99.90;;;;;;5011001;28;20227;-75
2021/06/28 17:58:47;;;;;;;9.20;6.20;;;20.30;99.90;;;;;;5013223;28;20226;-76
2021/06/28 18:01:15;;;;;;;9.73;6.10;;;20.30;99.90;;;;;;5019198;28;20231;-74
2021/06/28 18:03:44;;;;;;;12.27;7.00;;;20.30;99.90;;;;;;5014157;28;20270;-76
2021/06/28 18:06:11;;;;;;;17.63;10.83;;;20.20;99.90;;;;;;5008278;28;20228;-74
2021/06/28 18:08:40;;;;;;;19.47;10.90;;;20.20;99.90;;;;;;5007141;28;20196;-74
2021/06/28 18:11:08;;;;;;;17.20;6.60;;;20.20;99.90;;;;;;5011249;28;20200;-74
2021/06/28 18:13:35;;;;;;;14.77;7.30;;;20.30;99.90;;;;;;5008335;28;20208;-73
2021/06/28 18:16:02;;;;;;;12.83;6.53;;;20.20;99.90;;;;;;5011671;28;20698;-73
2021/06/28 18:18:29;;;;;;;8.37;6.03;;;20.20;99.90;;;;;;5008642;28;20708;-74
2021/06/28 18:20:57;;;;;;;8.83;5.97;;;20.20;99.90;;;;;;5008609;28;20317;-73
2021/06/28 18:23:23;;;;;;;10.77;6.27;;;20.20;99.90;;;;;;5011803;28;20580;-74
2021/06/28 18:25:54;;;;;;;9.27;5.97;;;20.10;99.90;;;;;;5008853;28;20322;-74
2021/06/28 18:28:22;;;;;;;9.07;5.93;;;20.10;99.90;;;;;;5010926;28;20208;-74
2021/06/28 18:30:49;;;;;;;10.83;6.63;;;20.10;99.90;;;;;;5008610;28;20220;-72
2021/06/28 18:33:16;;;;;;;8.93;6.60;;;20.10;99.90;;;;;;5008509;28;20226;-73
2021/06/28 18:35:43;;;;;;;14.87;7.03;;;20.10;99.90;;;;;;5007694;28;20224;-72
2021/06/28 18:38:09;;;;;;;17.67;7.63;;;20.10;99.90;;;;;;5013158;28;20222;-73
2021/06/28 18:40:36;;;;;;;12.40;7.10;;;20.10;99.90;;;;;;5010099;28;20224;-73
2021/06/28 18:43:03;;;;;;;13.00;7.67;;;20.10;99.90;;;;;;5012185;28;20211;-74
2021/06/28 18:45:32;;;;;;;10.97;5.97;;;20.00;99.90;;;;;;5012055;28;20786;-73